sensor_id;sensor_type;location;lat;lon;timestamp;P1;durP1;ratioP1;P2;durP2;ratioP2
55134;SDS011;41031;44.750;11.308;2023-02-04T00:00:18;68.93;;;39.73;;
55134;SDS011;41031;44.750;11.308;2023-02-04T00:02:46;65.50;;;37.13;;
55134;SDS011;41031;44.750;11.308;2023-02-04T00:05:15;72.60;;;38.40;;
55134;SDS011;41031;44.750;11.308;2023-02-04T00:07:43;78.33;;;39.23;;
55134;SDS011;41031;44.750;11.308;2023-02-04T00:10:10;70.27;;;38.50;;
55134;SDS011;41031;44.750;11.308;2023-02-04T00:12:37;65.80;;;37.33;;
55134;SDS011;41031;44.750;11.308;2023-02-04T00:15:04;60.83;;;35.87;;
55134;SDS011;41031;44.750;11.308;2023-02-04T00:17:31;72.40;;;35.83;;
55134;SDS011;41031;44.750;11.308;2023-02-04T00:19:58;57.87;;;33.03;;
55134;SDS011;41031;44.750;11.308;2023-02-04T00:22:25;59.87;;;34.33;;
55134;SDS011;41031;44.750;11.308;2023-02-04T00:24:54;63.30;;;34.63;;
55134;SDS011;41031;44.750;11.308;2023-02-04T00:27:21;60.20;;;31.77;;
55134;SDS011;41031;44.750;11.308;2023-02-04T00:29:48;63.13;;;32.43;;
55134;SDS011;41031;44.750;11.308;2023-02-04T00:32:15;56.33;;;30.87;;
55134;SDS011;41031;44.750;11.308;2023-02-04T00:34:42;62.37;;;31.43;;
55134;SDS011;41031;44.750;11.308;2023-02-04T00:37:09;51.77;;;30.80;;
55134;SDS011;41031;44.750;11.308;2023-02-04T00:39:36;58.00;;;31.73;;
55134;SDS011;41031;44.750;11.308;2023-02-04T00:42:04;56.13;;;30.90;;
55134;SDS011;41031;44.750;11.308;2023-02-04T00:44:34;54.27;;;30.67;;
55134;SDS011;41031;44.750;11.308;2023-02-04T00:47:02;50.03;;;29.57;;
55134;SDS011;41031;44.750;11.308;2023-02-04T00:49:29;46.50;;;27.00;;
55134;SDS011;41031;44.750;11.308;2023-02-04T00:51:56;47.37;;;28.53;;
55134;SDS011;41031;44.750;11.308;2023-02-04T00:54:24;45.70;;;26.83;;
55134;SDS011;41031;44.750;11.308;2023-02-04T00:56:51;52.70;;;28.37;;
55134;SDS011;41031;44.750;11.308;2023-02-04T00:59:18;47.50;;;27.53;;
55134;SDS011;41031;44.750;11.308;2023-02-04T01:01:45;43.20;;;26.80;;
55134;SDS011;41031;44.750;11.308;2023-02-04T01:04:13;53.30;;;28.40;;
55134;SDS011;41031;44.750;11.308;2023-02-04T01:06:40;49.83;;;27.50;;
55134;SDS011;41031;44.750;11.308;2023-02-04T01:09:08;44.17;;;28.03;;
55134;SDS011;41031;44.750;11.308;2023-02-04T01:11:35;52.97;;;27.07;;
55134;SDS011;41031;44.750;11.308;2023-02-04T01:14:03;43.17;;;25.33;;
55134;SDS011;41031;44.750;11.308;2023-02-04T01:16:30;41.03;;;25.70;;
55134;SDS011;41031;44.750;11.308;2023-02-04T01:18:57;50.13;;;27.20;;
55134;SDS011;41031;44.750;11.308;2023-02-04T01:21:25;53.20;;;29.50;;
55134;SDS011;41031;44.750;11.308;2023-02-04T01:23:52;48.50;;;27.53;;
55134;SDS011;41031;44.750;11.308;2023-02-04T01:26:20;48.63;;;28.63;;
55134;SDS011;41031;44.750;11.308;2023-02-04T01:28:48;46.80;;;27.13;;
55134;SDS011;41031;44.750;11.308;2023-02-04T01:31:15;45.67;;;27.53;;
55134;SDS011;41031;44.750;11.308;2023-02-04T01:33:42;46.63;;;26.70;;
55134;SDS011;41031;44.750;11.308;2023-02-04T01:36:10;40.73;;;25.13;;
55134;SDS011;41031;44.750;11.308;2023-02-04T01:38:37;38.70;;;24.77;;
55134;SDS011;41031;44.750;11.308;2023-02-04T01:41:05;44.90;;;26.30;;
55134;SDS011;41031;44.750;11.308;2023-02-04T01:43:32;42.97;;;26.67;;
55134;SDS011;41031;44.750;11.308;2023-02-04T01:46:00;40.80;;;24.37;;
55134;SDS011;41031;44.750;11.308;2023-02-04T01:48:28;46.97;;;26.00;;
55134;SDS011;41031;44.750;11.308;2023-02-04T01:50:58;44.70;;;26.13;;
55134;SDS011;41031;44.750;11.308;2023-02-04T01:53:29;46.03;;;26.70;;
55134;SDS011;41031;44.750;11.308;2023-02-04T01:55:58;45.23;;;26.23;;
55134;SDS011;41031;44.750;11.308;2023-02-04T01:58:26;46.10;;;26.40;;
55134;SDS011;41031;44.750;11.308;2023-02-04T02:00:57;45.90;;;25.07;;
55134;SDS011;41031;44.750;11.308;2023-02-04T02:03:24;43.87;;;25.70;;
55134;SDS011;41031;44.750;11.308;2023-02-04T02:05:52;48.33;;;24.90;;
55134;SDS011;41031;44.750;11.308;2023-02-04T02:08:24;45.03;;;24.90;;
55134;SDS011;41031;44.750;11.308;2023-02-04T02:10:51;45.83;;;26.20;;
55134;SDS011;41031;44.750;11.308;2023-02-04T02:13:18;39.37;;;23.03;;
55134;SDS011;41031;44.750;11.308;2023-02-04T02:15:45;37.03;;;21.87;;
55134;SDS011;41031;44.750;11.308;2023-02-04T02:18:13;41.33;;;23.47;;
55134;SDS011;41031;44.750;11.308;2023-02-04T02:20:43;35.83;;;22.13;;
55134;SDS011;41031;44.750;11.308;2023-02-04T02:25:47;41.67;;;23.80;;
55134;SDS011;41031;44.750;11.308;2023-02-04T02:28:16;43.77;;;23.23;;
55134;SDS011;41031;44.750;11.308;2023-02-04T02:30:45;41.07;;;23.83;;
55134;SDS011;41031;44.750;11.308;2023-02-04T02:33:15;39.03;;;23.03;;
55134;SDS011;41031;44.750;11.308;2023-02-04T02:35:45;42.77;;;23.63;;
55134;SDS011;41031;44.750;11.308;2023-02-04T02:38:16;41.17;;;22.03;;
55134;SDS011;41031;44.750;11.308;2023-02-04T02:40:44;41.53;;;23.27;;
55134;SDS011;41031;44.750;11.308;2023-02-04T02:43:13;38.47;;;20.90;;
55134;SDS011;41031;44.750;11.308;2023-02-04T02:45:43;41.40;;;22.80;;
55134;SDS011;41031;44.750;11.308;2023-02-04T02:48:11;41.83;;;23.70;;
55134;SDS011;41031;44.750;11.308;2023-02-04T02:50:38;40.33;;;21.50;;
55134;SDS011;41031;44.750;11.308;2023-02-04T02:53:17;38.77;;;20.87;;
55134;SDS011;41031;44.750;11.308;2023-02-04T02:55:45;46.87;;;22.93;;
55134;SDS011;41031;44.750;11.308;2023-02-04T02:58:22;37.30;;;22.60;;
55134;SDS011;41031;44.750;11.308;2023-02-04T03:00:55;37.83;;;23.60;;
55134;SDS011;41031;44.750;11.308;2023-02-04T03:03:27;40.33;;;25.07;;
55134;SDS011;41031;44.750;11.308;2023-02-04T03:05:58;41.10;;;22.60;;
55134;SDS011;41031;44.750;11.308;2023-02-04T03:08:30;39.03;;;23.33;;
55134;SDS011;41031;44.750;11.308;2023-02-04T03:10:57;39.47;;;24.07;;
55134;SDS011;41031;44.750;11.308;2023-02-04T03:13:24;38.47;;;22.77;;
55134;SDS011;41031;44.750;11.308;2023-02-04T03:15:51;36.03;;;22.43;;
55134;SDS011;41031;44.750;11.308;2023-02-04T03:18:19;36.87;;;22.63;;
55134;SDS011;41031;44.750;11.308;2023-02-04T03:20:47;39.00;;;22.73;;
55134;SDS011;41031;44.750;11.308;2023-02-04T03:23:17;40.67;;;22.67;;
55134;SDS011;41031;44.750;11.308;2023-02-04T03:25:45;35.60;;;22.30;;
55134;SDS011;41031;44.750;11.308;2023-02-04T03:28:12;40.37;;;22.33;;
55134;SDS011;41031;44.750;11.308;2023-02-04T03:30:40;37.93;;;22.67;;
55134;SDS011;41031;44.750;11.308;2023-02-04T03:33:07;36.83;;;22.17;;
55134;SDS011;41031;44.750;11.308;2023-02-04T03:35:34;35.47;;;22.63;;
55134;SDS011;41031;44.750;11.308;2023-02-04T03:38:01;36.47;;;21.70;;
55134;SDS011;41031;44.750;11.308;2023-02-04T03:40:28;37.40;;;21.93;;
55134;SDS011;41031;44.750;11.308;2023-02-04T03:42:55;40.33;;;21.57;;
55134;SDS011;41031;44.750;11.308;2023-02-04T03:45:22;35.07;;;22.13;;
55134;SDS011;41031;44.750;11.308;2023-02-04T03:47:51;37.50;;;21.23;;
55134;SDS011;41031;44.750;11.308;2023-02-04T03:50:18;33.57;;;20.73;;
55134;SDS011;41031;44.750;11.308;2023-02-04T03:52:45;39.57;;;21.17;;
55134;SDS011;41031;44.750;11.308;2023-02-04T03:55:14;30.73;;;19.30;;
55134;SDS011;41031;44.750;11.308;2023-02-04T03:57:41;31.00;;;20.00;;
55134;SDS011;41031;44.750;11.308;2023-02-04T04:00:08;38.60;;;19.93;;
55134;SDS011;41031;44.750;11.308;2023-02-04T04:02:39;34.70;;;20.50;;
55134;SDS011;41031;44.750;11.308;2023-02-04T04:05:07;33.30;;;19.87;;
55134;SDS011;41031;44.750;11.308;2023-02-04T04:07:35;31.13;;;19.90;;
55134;SDS011;41031;44.750;11.308;2023-02-04T04:10:02;30.30;;;18.80;;
55134;SDS011;41031;44.750;11.308;2023-02-04T04:12:29;25.83;;;18.17;;
55134;SDS011;41031;44.750;11.308;2023-02-04T04:14:58;33.63;;;19.30;;
55134;SDS011;41031;44.750;11.308;2023-02-04T04:17:25;28.73;;;18.43;;
55134;SDS011;41031;44.750;11.308;2023-02-04T04:19:51;29.30;;;18.90;;
55134;SDS011;41031;44.750;11.308;2023-02-04T04:22:18;34.57;;;21.00;;
55134;SDS011;41031;44.750;11.308;2023-02-04T04:24:46;33.77;;;19.70;;
55134;SDS011;41031;44.750;11.308;2023-02-04T04:27:12;25.77;;;17.37;;
55134;SDS011;41031;44.750;11.308;2023-02-04T04:29:40;31.80;;;17.10;;
55134;SDS011;41031;44.750;11.308;2023-02-04T04:32:07;25.20;;;16.73;;
55134;SDS011;41031;44.750;11.308;2023-02-04T04:34:35;31.47;;;16.97;;
55134;SDS011;41031;44.750;11.308;2023-02-04T04:37:02;26.07;;;16.40;;
55134;SDS011;41031;44.750;11.308;2023-02-04T04:39:29;26.23;;;16.23;;
55134;SDS011;41031;44.750;11.308;2023-02-04T04:41:56;28.90;;;18.07;;
55134;SDS011;41031;44.750;11.308;2023-02-04T04:44:23;29.67;;;16.53;;
55134;SDS011;41031;44.750;11.308;2023-02-04T04:46:50;28.60;;;16.07;;
55134;SDS011;41031;44.750;11.308;2023-02-04T04:49:17;27.07;;;16.50;;
55134;SDS011;41031;44.750;11.308;2023-02-04T04:51:44;29.73;;;15.80;;
55134;SDS011;41031;44.750;11.308;2023-02-04T04:54:11;24.93;;;16.77;;
55134;SDS011;41031;44.750;11.308;2023-02-04T04:56:38;26.27;;;16.27;;
55134;SDS011;41031;44.750;11.308;2023-02-04T04:59:05;27.90;;;17.13;;
55134;SDS011;41031;44.750;11.308;2023-02-04T05:01:32;26.07;;;17.60;;
55134;SDS011;41031;44.750;11.308;2023-02-04T05:03:59;28.77;;;14.47;;
55134;SDS011;41031;44.750;11.308;2023-02-04T05:06:26;26.03;;;15.23;;
55134;SDS011;41031;44.750;11.308;2023-02-04T05:08:53;21.77;;;14.70;;
55134;SDS011;41031;44.750;11.308;2023-02-04T05:11:20;29.43;;;15.90;;
55134;SDS011;41031;44.750;11.308;2023-02-04T05:13:47;24.90;;;15.20;;
55134;SDS011;41031;44.750;11.308;2023-02-04T05:16:14;30.30;;;17.07;;
55134;SDS011;41031;44.750;11.308;2023-02-04T05:18:42;28.60;;;17.67;;
55134;SDS011;41031;44.750;11.308;2023-02-04T05:21:10;30.63;;;16.47;;
55134;SDS011;41031;44.750;11.308;2023-02-04T05:23:37;27.47;;;16.47;;
55134;SDS011;41031;44.750;11.308;2023-02-04T05:26:04;28.80;;;16.23;;
55134;SDS011;41031;44.750;11.308;2023-02-04T05:28:31;28.50;;;16.23;;
55134;SDS011;41031;44.750;11.308;2023-02-04T05:30:58;28.37;;;15.90;;
55134;SDS011;41031;44.750;11.308;2023-02-04T05:33:25;27.50;;;16.03;;
55134;SDS011;41031;44.750;11.308;2023-02-04T05:35:52;25.87;;;16.27;;
55134;SDS011;41031;44.750;11.308;2023-02-04T05:38:19;20.20;;;14.97;;
55134;SDS011;41031;44.750;11.308;2023-02-04T05:40:46;22.57;;;15.33;;
55134;SDS011;41031;44.750;11.308;2023-02-04T05:43:13;30.87;;;17.50;;
55134;SDS011;41031;44.750;11.308;2023-02-04T05:45:40;25.27;;;15.57;;
55134;SDS011;41031;44.750;11.308;2023-02-04T05:48:07;25.53;;;15.63;;
55134;SDS011;41031;44.750;11.308;2023-02-04T05:50:34;21.37;;;15.80;;
55134;SDS011;41031;44.750;11.308;2023-02-04T05:53:07;25.97;;;16.53;;
55134;SDS011;41031;44.750;11.308;2023-02-04T05:55:34;27.00;;;16.57;;
55134;SDS011;41031;44.750;11.308;2023-02-04T05:58:02;27.77;;;16.63;;
55134;SDS011;41031;44.750;11.308;2023-02-04T06:00:28;31.27;;;18.00;;
55134;SDS011;41031;44.750;11.308;2023-02-04T06:02:56;28.77;;;15.87;;
55134;SDS011;41031;44.750;11.308;2023-02-04T06:05:23;40.10;;;18.00;;
55134;SDS011;41031;44.750;11.308;2023-02-04T06:07:50;30.17;;;17.90;;
55134;SDS011;41031;44.750;11.308;2023-02-04T06:10:17;29.07;;;17.03;;
55134;SDS011;41031;44.750;11.308;2023-02-04T06:12:46;26.23;;;17.40;;
55134;SDS011;41031;44.750;11.308;2023-02-04T06:15:14;24.90;;;15.13;;
55134;SDS011;41031;44.750;11.308;2023-02-04T06:17:41;22.90;;;14.67;;
55134;SDS011;41031;44.750;11.308;2023-02-04T06:20:09;22.67;;;14.03;;
55134;SDS011;41031;44.750;11.308;2023-02-04T06:22:38;27.27;;;15.60;;
55134;SDS011;41031;44.750;11.308;2023-02-04T06:25:06;24.03;;;14.37;;
55134;SDS011;41031;44.750;11.308;2023-02-04T06:27:33;28.20;;;16.63;;
55134;SDS011;41031;44.750;11.308;2023-02-04T06:30:00;25.33;;;15.83;;
55134;SDS011;41031;44.750;11.308;2023-02-04T06:32:27;29.83;;;17.17;;
55134;SDS011;41031;44.750;11.308;2023-02-04T06:34:54;26.90;;;16.27;;
55134;SDS011;41031;44.750;11.308;2023-02-04T06:37:21;26.57;;;15.80;;
55134;SDS011;41031;44.750;11.308;2023-02-04T06:39:49;26.70;;;17.03;;
55134;SDS011;41031;44.750;11.308;2023-02-04T06:42:17;27.83;;;15.90;;
55134;SDS011;41031;44.750;11.308;2023-02-04T06:44:44;22.20;;;16.27;;
55134;SDS011;41031;44.750;11.308;2023-02-04T06:47:11;24.87;;;16.10;;
55134;SDS011;41031;44.750;11.308;2023-02-04T06:49:38;27.20;;;15.73;;
55134;SDS011;41031;44.750;11.308;2023-02-04T06:52:05;28.07;;;17.30;;
55134;SDS011;41031;44.750;11.308;2023-02-04T06:54:32;30.97;;;18.73;;
55134;SDS011;41031;44.750;11.308;2023-02-04T06:56:59;31.27;;;17.37;;
55134;SDS011;41031;44.750;11.308;2023-02-04T06:59:33;31.03;;;17.90;;
55134;SDS011;41031;44.750;11.308;2023-02-04T07:02:01;27.33;;;18.00;;
55134;SDS011;41031;44.750;11.308;2023-02-04T07:04:29;32.83;;;19.07;;
55134;SDS011;41031;44.750;11.308;2023-02-04T07:06:56;38.60;;;22.70;;
55134;SDS011;41031;44.750;11.308;2023-02-04T07:09:23;36.33;;;21.47;;
55134;SDS011;41031;44.750;11.308;2023-02-04T07:11:50;41.13;;;23.07;;
55134;SDS011;41031;44.750;11.308;2023-02-04T07:14:17;37.10;;;22.27;;
55134;SDS011;41031;44.750;11.308;2023-02-04T07:16:44;36.73;;;23.33;;
55134;SDS011;41031;44.750;11.308;2023-02-04T07:19:11;38.33;;;23.77;;
55134;SDS011;41031;44.750;11.308;2023-02-04T07:21:38;45.30;;;26.23;;
55134;SDS011;41031;44.750;11.308;2023-02-04T07:24:05;53.00;;;29.03;;
55134;SDS011;41031;44.750;11.308;2023-02-04T07:26:33;53.03;;;31.93;;
55134;SDS011;41031;44.750;11.308;2023-02-04T07:29:00;58.83;;;32.20;;
55134;SDS011;41031;44.750;11.308;2023-02-04T07:31:26;58.13;;;30.73;;
55134;SDS011;41031;44.750;11.308;2023-02-04T07:33:54;55.43;;;32.87;;
55134;SDS011;41031;44.750;11.308;2023-02-04T07:36:21;54.30;;;32.97;;
55134;SDS011;41031;44.750;11.308;2023-02-04T07:38:48;55.87;;;32.37;;
55134;SDS011;41031;44.750;11.308;2023-02-04T07:41:15;60.30;;;33.13;;
55134;SDS011;41031;44.750;11.308;2023-02-04T07:43:42;61.13;;;34.90;;
55134;SDS011;41031;44.750;11.308;2023-02-04T07:46:09;57.07;;;33.03;;
55134;SDS011;41031;44.750;11.308;2023-02-04T07:48:36;59.67;;;33.73;;
55134;SDS011;41031;44.750;11.308;2023-02-04T07:51:03;57.23;;;34.67;;
55134;SDS011;41031;44.750;11.308;2023-02-04T07:53:30;62.37;;;33.90;;
55134;SDS011;41031;44.750;11.308;2023-02-04T07:55:57;59.27;;;32.10;;
55134;SDS011;41031;44.750;11.308;2023-02-04T07:58:24;56.00;;;34.33;;
55134;SDS011;41031;44.750;11.308;2023-02-04T08:00:51;60.03;;;33.57;;
55134;SDS011;41031;44.750;11.308;2023-02-04T08:03:18;56.20;;;33.03;;
55134;SDS011;41031;44.750;11.308;2023-02-04T08:05:45;66.83;;;36.93;;
55134;SDS011;41031;44.750;11.308;2023-02-04T08:08:12;64.90;;;36.30;;
55134;SDS011;41031;44.750;11.308;2023-02-04T08:10:40;66.97;;;37.80;;
55134;SDS011;41031;44.750;11.308;2023-02-04T08:13:07;67.70;;;37.30;;
55134;SDS011;41031;44.750;11.308;2023-02-04T08:15:34;63.70;;;37.10;;
55134;SDS011;41031;44.750;11.308;2023-02-04T08:18:02;83.77;;;42.30;;
55134;SDS011;41031;44.750;11.308;2023-02-04T08:20:29;75.53;;;42.27;;
55134;SDS011;41031;44.750;11.308;2023-02-04T08:22:57;79.23;;;42.70;;
55134;SDS011;41031;44.750;11.308;2023-02-04T08:25:24;88.63;;;47.23;;
55134;SDS011;41031;44.750;11.308;2023-02-04T08:27:51;92.27;;;48.37;;
55134;SDS011;41031;44.750;11.308;2023-02-04T08:30:18;102.10;;;52.50;;
55134;SDS011;41031;44.750;11.308;2023-02-04T08:32:45;94.90;;;51.23;;
55134;SDS011;41031;44.750;11.308;2023-02-04T08:35:13;114.50;;;58.93;;
55134;SDS011;41031;44.750;11.308;2023-02-04T08:37:40;113.87;;;61.03;;
55134;SDS011;41031;44.750;11.308;2023-02-04T08:40:07;118.87;;;63.67;;
55134;SDS011;41031;44.750;11.308;2023-02-04T08:42:34;130.40;;;66.37;;
55134;SDS011;41031;44.750;11.308;2023-02-04T08:45:02;126.70;;;68.27;;
55134;SDS011;41031;44.750;11.308;2023-02-04T08:47:29;140.23;;;72.77;;
55134;SDS011;41031;44.750;11.308;2023-02-04T08:49:56;147.03;;;76.50;;
55134;SDS011;41031;44.750;11.308;2023-02-04T08:52:23;135.60;;;69.97;;
55134;SDS011;41031;44.750;11.308;2023-02-04T08:54:50;137.87;;;74.20;;
55134;SDS011;41031;44.750;11.308;2023-02-04T08:57:17;141.13;;;74.80;;
55134;SDS011;41031;44.750;11.308;2023-02-04T08:59:44;139.67;;;76.07;;
55134;SDS011;41031;44.750;11.308;2023-02-04T09:02:11;145.43;;;77.70;;
55134;SDS011;41031;44.750;11.308;2023-02-04T09:04:38;148.57;;;76.10;;
55134;SDS011;41031;44.750;11.308;2023-02-04T09:07:05;148.63;;;73.73;;
55134;SDS011;41031;44.750;11.308;2023-02-04T09:09:32;141.13;;;71.93;;
55134;SDS011;41031;44.750;11.308;2023-02-04T09:11:59;122.73;;;65.87;;
55134;SDS011;41031;44.750;11.308;2023-02-04T09:14:27;122.67;;;64.40;;
55134;SDS011;41031;44.750;11.308;2023-02-04T09:16:54;142.47;;;78.00;;
55134;SDS011;41031;44.750;11.308;2023-02-04T09:19:21;155.63;;;82.00;;
55134;SDS011;41031;44.750;11.308;2023-02-04T09:21:51;156.70;;;78.30;;
55134;SDS011;41031;44.750;11.308;2023-02-04T09:24:18;152.73;;;77.33;;
55134;SDS011;41031;44.750;11.308;2023-02-04T09:26:48;136.50;;;73.40;;
55134;SDS011;41031;44.750;11.308;2023-02-04T09:29:16;137.80;;;71.07;;
55134;SDS011;41031;44.750;11.308;2023-02-04T09:31:43;123.20;;;68.93;;
55134;SDS011;41031;44.750;11.308;2023-02-04T09:34:10;118.77;;;66.87;;
55134;SDS011;41031;44.750;11.308;2023-02-04T09:36:37;127.23;;;65.97;;
55134;SDS011;41031;44.750;11.308;2023-02-04T09:39:04;120.90;;;65.10;;
55134;SDS011;41031;44.750;11.308;2023-02-04T09:41:32;121.30;;;63.43;;
55134;SDS011;41031;44.750;11.308;2023-02-04T09:44:00;108.97;;;60.00;;
55134;SDS011;41031;44.750;11.308;2023-02-04T09:46:29;104.70;;;56.20;;
55134;SDS011;41031;44.750;11.308;2023-02-04T09:48:58;96.93;;;53.03;;
55134;SDS011;41031;44.750;11.308;2023-02-04T09:51:26;94.73;;;51.10;;
55134;SDS011;41031;44.750;11.308;2023-02-04T09:53:58;95.03;;;51.57;;
55134;SDS011;41031;44.750;11.308;2023-02-04T09:56:33;86.37;;;46.23;;
55134;SDS011;41031;44.750;11.308;2023-02-04T09:59:00;88.53;;;49.33;;
55134;SDS011;41031;44.750;11.308;2023-02-04T10:01:28;76.43;;;46.00;;
55134;SDS011;41031;44.750;11.308;2023-02-04T10:03:57;77.03;;;46.17;;
55134;SDS011;41031;44.750;11.308;2023-02-04T10:06:26;98.77;;;54.87;;
55134;SDS011;41031;44.750;11.308;2023-02-04T10:08:53;74.83;;;43.53;;
55134;SDS011;41031;44.750;11.308;2023-02-04T10:11:22;78.50;;;43.17;;
55134;SDS011;41031;44.750;11.308;2023-02-04T10:13:52;88.73;;;48.73;;
55134;SDS011;41031;44.750;11.308;2023-02-04T10:16:27;79.23;;;45.40;;
55134;SDS011;41031;44.750;11.308;2023-02-04T10:19:01;69.27;;;41.87;;
55134;SDS011;41031;44.750;11.308;2023-02-04T10:21:31;67.00;;;39.80;;
55134;SDS011;41031;44.750;11.308;2023-02-04T10:24:09;71.10;;;40.53;;
55134;SDS011;41031;44.750;11.308;2023-02-04T10:26:40;70.60;;;42.10;;
55134;SDS011;41031;44.750;11.308;2023-02-04T10:29:12;60.93;;;38.47;;
55134;SDS011;41031;44.750;11.308;2023-02-04T10:31:43;66.90;;;39.20;;
55134;SDS011;41031;44.750;11.308;2023-02-04T10:34:32;61.90;;;39.80;;
55134;SDS011;41031;44.750;11.308;2023-02-04T10:37:10;59.10;;;36.43;;
55134;SDS011;41031;44.750;11.308;2023-02-04T10:39:42;56.20;;;33.87;;
55134;SDS011;41031;44.750;11.308;2023-02-04T10:42:17;50.83;;;32.63;;
55134;SDS011;41031;44.750;11.308;2023-02-04T10:44:56;55.60;;;31.83;;
55134;SDS011;41031;44.750;11.308;2023-02-04T10:47:24;40.53;;;27.27;;
55134;SDS011;41031;44.750;11.308;2023-02-04T10:52:29;52.33;;;29.87;;
55134;SDS011;41031;44.750;11.308;2023-02-04T10:55:03;40.80;;;25.77;;
55134;SDS011;41031;44.750;11.308;2023-02-04T10:57:34;46.17;;;27.17;;
55134;SDS011;41031;44.750;11.308;2023-02-04T11:00:06;46.53;;;29.50;;
55134;SDS011;41031;44.750;11.308;2023-02-04T11:05:19;44.83;;;28.57;;
55134;SDS011;41031;44.750;11.308;2023-02-04T11:07:48;42.67;;;25.80;;
55134;SDS011;41031;44.750;11.308;2023-02-04T11:10:19;44.73;;;25.50;;
55134;SDS011;41031;44.750;11.308;2023-02-04T11:20:48;37.97;;;26.33;;
55134;SDS011;41031;44.750;11.308;2023-02-04T11:31:13;37.10;;;23.20;;
55134;SDS011;41031;44.750;11.308;2023-02-04T11:33:50;33.20;;;21.13;;
55134;SDS011;41031;44.750;11.308;2023-02-04T11:36:47;34.77;;;21.90;;
55134;SDS011;41031;44.750;11.308;2023-02-04T11:42:16;34.27;;;22.93;;
55134;SDS011;41031;44.750;11.308;2023-02-04T11:44:53;32.27;;;21.83;;
55134;SDS011;41031;44.750;11.308;2023-02-04T11:47:24;32.90;;;21.83;;
55134;SDS011;41031;44.750;11.308;2023-02-04T11:49:57;34.93;;;21.47;;
55134;SDS011;41031;44.750;11.308;2023-02-04T11:52:27;32.23;;;21.50;;
55134;SDS011;41031;44.750;11.308;2023-02-04T11:54:57;33.87;;;21.47;;
55134;SDS011;41031;44.750;11.308;2023-02-04T11:57:25;29.77;;;19.70;;
55134;SDS011;41031;44.750;11.308;2023-02-04T11:59:53;32.77;;;21.63;;
55134;SDS011;41031;44.750;11.308;2023-02-04T12:02:22;32.33;;;20.53;;
55134;SDS011;41031;44.750;11.308;2023-02-04T12:04:54;30.23;;;20.37;;
55134;SDS011;41031;44.750;11.308;2023-02-04T12:07:24;29.50;;;19.77;;
55134;SDS011;41031;44.750;11.308;2023-02-04T12:09:55;25.70;;;17.60;;
55134;SDS011;41031;44.750;11.308;2023-02-04T12:12:23;22.40;;;15.53;;
55134;SDS011;41031;44.750;11.308;2023-02-04T12:14:56;25.70;;;17.27;;
55134;SDS011;41031;44.750;11.308;2023-02-04T12:17:28;23.73;;;16.20;;
55134;SDS011;41031;44.750;11.308;2023-02-04T12:19:55;24.10;;;16.53;;
55134;SDS011;41031;44.750;11.308;2023-02-04T12:22:22;30.80;;;15.87;;
55134;SDS011;41031;44.750;11.308;2023-02-04T12:24:49;24.33;;;14.73;;
55134;SDS011;41031;44.750;11.308;2023-02-04T12:27:17;21.90;;;15.10;;
55134;SDS011;41031;44.750;11.308;2023-02-04T12:29:44;20.07;;;13.43;;
55134;SDS011;41031;44.750;11.308;2023-02-04T12:32:12;21.90;;;14.17;;
55134;SDS011;41031;44.750;11.308;2023-02-04T12:34:39;26.60;;;14.63;;
55134;SDS011;41031;44.750;11.308;2023-02-04T12:37:06;23.03;;;15.10;;
55134;SDS011;41031;44.750;11.308;2023-02-04T12:39:33;23.17;;;13.97;;
55134;SDS011;41031;44.750;11.308;2023-02-04T12:42:00;19.50;;;13.13;;
55134;SDS011;41031;44.750;11.308;2023-02-04T12:44:27;23.33;;;13.17;;
55134;SDS011;41031;44.750;11.308;2023-02-04T12:46:54;18.27;;;12.57;;
55134;SDS011;41031;44.750;11.308;2023-02-04T12:49:21;18.70;;;13.13;;
55134;SDS011;41031;44.750;11.308;2023-02-04T12:51:50;18.10;;;11.83;;
55134;SDS011;41031;44.750;11.308;2023-02-04T12:54:17;19.10;;;12.57;;
55134;SDS011;41031;44.750;11.308;2023-02-04T12:56:44;18.73;;;13.40;;
55134;SDS011;41031;44.750;11.308;2023-02-04T12:59:11;18.30;;;12.10;;
55134;SDS011;41031;44.750;11.308;2023-02-04T13:01:38;16.77;;;12.63;;
55134;SDS011;41031;44.750;11.308;2023-02-04T13:04:05;18.47;;;13.20;;
55134;SDS011;41031;44.750;11.308;2023-02-04T13:06:32;19.87;;;13.70;;
55134;SDS011;41031;44.750;11.308;2023-02-04T13:08:59;20.47;;;13.43;;
55134;SDS011;41031;44.750;11.308;2023-02-04T13:11:26;17.50;;;12.87;;
55134;SDS011;41031;44.750;11.308;2023-02-04T13:13:53;21.93;;;15.67;;
55134;SDS011;41031;44.750;11.308;2023-02-04T13:16:20;20.20;;;14.00;;
55134;SDS011;41031;44.750;11.308;2023-02-04T13:18:49;18.20;;;12.33;;
55134;SDS011;41031;44.750;11.308;2023-02-04T13:21:16;19.40;;;13.33;;
55134;SDS011;41031;44.750;11.308;2023-02-04T13:23:43;22.30;;;14.17;;
55134;SDS011;41031;44.750;11.308;2023-02-04T13:26:10;19.70;;;12.43;;
55134;SDS011;41031;44.750;11.308;2023-02-04T13:28:37;21.87;;;13.20;;
55134;SDS011;41031;44.750;11.308;2023-02-04T13:31:04;18.83;;;13.13;;
55134;SDS011;41031;44.750;11.308;2023-02-04T13:33:31;21.50;;;14.33;;
55134;SDS011;41031;44.750;11.308;2023-02-04T13:35:58;20.03;;;13.87;;
55134;SDS011;41031;44.750;11.308;2023-02-04T13:38:25;19.63;;;12.77;;
55134;SDS011;41031;44.750;11.308;2023-02-04T13:40:52;24.30;;;16.80;;
55134;SDS011;41031;44.750;11.308;2023-02-04T13:43:19;26.40;;;18.20;;
55134;SDS011;41031;44.750;11.308;2023-02-04T13:45:46;21.53;;;16.80;;
55134;SDS011;41031;44.750;11.308;2023-02-04T13:48:14;29.07;;;16.97;;
55134;SDS011;41031;44.750;11.308;2023-02-04T13:50:42;24.77;;;18.07;;
55134;SDS011;41031;44.750;11.308;2023-02-04T13:53:09;22.37;;;15.60;;
55134;SDS011;41031;44.750;11.308;2023-02-04T13:55:36;21.53;;;15.47;;
55134;SDS011;41031;44.750;11.308;2023-02-04T13:58:03;20.57;;;14.17;;
55134;SDS011;41031;44.750;11.308;2023-02-04T14:00:30;63.57;;;40.70;;
55134;SDS011;41031;44.750;11.308;2023-02-04T14:02:58;88.57;;;56.33;;
55134;SDS011;41031;44.750;11.308;2023-02-04T14:05:25;94.80;;;63.00;;
55134;SDS011;41031;44.750;11.308;2023-02-04T14:07:52;106.73;;;68.73;;
55134;SDS011;41031;44.750;11.308;2023-02-04T14:10:19;112.67;;;70.40;;
55134;SDS011;41031;44.750;11.308;2023-02-04T14:12:48;118.07;;;68.30;;
55134;SDS011;41031;44.750;11.308;2023-02-04T14:15:15;113.47;;;68.87;;
55134;SDS011;41031;44.750;11.308;2023-02-04T14:17:42;119.57;;;73.03;;
55134;SDS011;41031;44.750;11.308;2023-02-04T14:20:09;118.03;;;69.60;;
55134;SDS011;41031;44.750;11.308;2023-02-04T14:22:37;123.07;;;70.10;;
55134;SDS011;41031;44.750;11.308;2023-02-04T14:25:04;121.67;;;71.87;;
55134;SDS011;41031;44.750;11.308;2023-02-04T14:27:31;125.50;;;73.33;;
55134;SDS011;41031;44.750;11.308;2023-02-04T14:30:00;127.97;;;74.80;;
55134;SDS011;41031;44.750;11.308;2023-02-04T14:32:27;132.00;;;75.87;;
55134;SDS011;41031;44.750;11.308;2023-02-04T14:34:54;135.37;;;73.57;;
55134;SDS011;41031;44.750;11.308;2023-02-04T14:37:21;126.30;;;74.97;;